sensor_id;sensor_type;location;lat;lon;timestamp;temperature;humidity
8537;DHT22;4306;50.210;10.628;2023-11-21T00:01:31;7.70;99.90
8537;DHT22;4306;50.210;10.628;2023-11-21T00:03:59;7.70;99.90
8537;DHT22;4306;50.210;10.628;2023-11-21T00:06:27;7.70;99.90
8537;DHT22;4306;50.210;10.628;2023-11-21T00:08:55;7.70;99.90
8537;DHT22;4306;50.210;10.628;2023-11-21T00:11:24;7.70;99.90
8537;DHT22;4306;50.210;10.628;2023-11-21T00:13:51;7.80;99.90
8537;DHT22;4306;50.210;10.628;2023-11-21T00:16:18;7.70;99.90
8537;DHT22;4306;50.210;10.628;2023-11-21T00:18:45;7.70;99.90
8537;DHT22;4306;50.210;10.628;2023-11-21T00:21:12;7.70;99.90
8537;DHT22;4306;50.210;10.628;2023-11-21T00:23:39;7.70;99.90
8537;DHT22;4306;50.210;10.628;2023-11-21T00:26:06;7.70;99.90
8537;DHT22;4306;50.210;10.628;2023-11-21T00:28:35;7.60;99.90
8537;DHT22;4306;50.210;10.628;2023-11-21T00:31:02;7.70;99.90
8537;DHT22;4306;50.210;10.628;2023-11-21T00:33:29;7.70;99.90
8537;DHT22;4306;50.210;10.628;2023-11-21T00:35:56;7.70;99.90
8537;DHT22;4306;50.210;10.628;2023-11-21T00:38:23;7.50;99.90
8537;DHT22;4306;50.210;10.628;2023-11-21T00:40:50;7.80;99.90
8537;DHT22;4306;50.210;10.628;2023-11-21T00:43:18;7.80;99.90
8537;DHT22;4306;50.210;10.628;2023-11-21T00:45:47;7.70;99.90
8537;DHT22;4306;50.210;10.628;2023-11-21T00:48:14;7.70;99.90
8537;DHT22;4306;50.210;10.628;2023-11-21T00:50:42;7.70;99.90
8537;DHT22;4306;50.210;10.628;2023-11-21T00:53:09;7.60;99.90
8537;DHT22;4306;50.210;10.628;2023-11-21T00:55:36;7.60;99.90
8537;DHT22;4306;50.210;10.628;2023-11-21T00:58:05;7.60;99.90
8537;DHT22;4306;50.210;10.628;2023-11-21T01:00:32;7.70;99.90
8537;DHT22;4306;50.210;10.628;2023-11-21T01:03:01;7.70;99.90
8537;DHT22;4306;50.210;10.628;2023-11-21T01:05:28;7.80;99.90
8537;DHT22;4306;50.210;10.628;2023-11-21T01:07:55;7.80;99.90
8537;DHT22;4306;50.210;10.628;2023-11-21T01:10:22;7.90;99.90
8537;DHT22;4306;50.210;10.628;2023-11-21T01:12:50;7.80;99.90
8537;DHT22;4306;50.210;10.628;2023-11-21T01:15:17;7.80;99.90
8537;DHT22;4306;50.210;10.628;2023-11-21T01:17:44;7.90;99.90
8537;DHT22;4306;50.210;10.628;2023-11-21T01:20:12;7.90;99.90
8537;DHT22;4306;50.210;10.628;2023-11-21T01:22:40;7.90;99.90
8537;DHT22;4306;50.210;10.628;2023-11-21T01:25:07;7.90;99.90
8537;DHT22;4306;50.210;10.628;2023-11-21T01:27:34;7.90;99.90
8537;DHT22;4306;50.210;10.628;2023-11-21T01:30:02;8.00;99.90
8537;DHT22;4306;50.210;10.628;2023-11-21T01:32:30;7.90;99.90
8537;DHT22;4306;50.210;10.628;2023-11-21T01:34:58;7.90;99.90
8537;DHT22;4306;50.210;10.628;2023-11-21T01:37:26;7.90;99.90
8537;DHT22;4306;50.210;10.628;2023-11-21T01:39:54;7.90;99.90
8537;DHT22;4306;50.210;10.628;2023-11-21T01:42:21;8.00;99.90
8537;DHT22;4306;50.210;10.628;2023-11-21T01:44:49;7.90;99.90
8537;DHT22;4306;50.210;10.628;2023-11-21T01:47:16;7.90;99.90
8537;DHT22;4306;50.210;10.628;2023-11-21T01:49:44;8.00;99.90
8537;DHT22;4306;50.210;10.628;2023-11-21T01:52:12;7.90;99.90
8537;DHT22;4306;50.210;10.628;2023-11-21T01:54:41;8.00;99.90
8537;DHT22;4306;50.210;10.628;2023-11-21T01:57:08;8.00;99.90
8537;DHT22;4306;50.210;10.628;2023-11-21T01:59:36;7.90;99.90
8537;DHT22;4306;50.210;10.628;2023-11-21T02:02:04;7.90;99.90
8537;DHT22;4306;50.210;10.628;2023-11-21T02:04:32;7.90;99.90
8537;DHT22;4306;50.210;10.628;2023-11-21T02:07:00;7.90;99.90
8537;DHT22;4306;50.210;10.628;2023-11-21T02:09:27;7.90;99.90
8537;DHT22;4306;50.210;10.628;2023-11-21T02:11:57;7.90;99.90
8537;DHT22;4306;50.210;10.628;2023-11-21T02:14:24;7.80;99.90
8537;DHT22;4306;50.210;10.628;2023-11-21T02:16:53;7.80;99.90
8537;DHT22;4306;50.210;10.628;2023-11-21T02:19:21;7.80;99.90
8537;DHT22;4306;50.210;10.628;2023-11-21T02:21:50;7.90;99.90
8537;DHT22;4306;50.210;10.628;2023-11-21T02:24:20;7.90;99.90
8537;DHT22;4306;50.210;10.628;2023-11-21T02:26:47;7.90;99.90
8537;DHT22;4306;50.210;10.628;2023-11-21T02:29:15;7.90;99.90
8537;DHT22;4306;50.210;10.628;2023-11-21T02:31:44;7.90;99.90
8537;DHT22;4306;50.210;10.628;2023-11-21T02:34:14;7.90;99.90
8537;DHT22;4306;50.210;10.628;2023-11-21T02:36:42;7.90;99.90
8537;DHT22;4306;50.210;10.628;2023-11-21T02:39:09;7.90;99.90
8537;DHT22;4306;50.210;10.628;2023-11-21T02:41:38;7.90;99.90
8537;DHT22;4306;50.210;10.628;2023-11-21T02:44:06;7.80;99.90
8537;DHT22;4306;50.210;10.628;2023-11-21T02:46:33;7.90;99.90
8537;DHT22;4306;50.210;10.628;2023-11-21T02:49:01;7.90;99.90
8537;DHT22;4306;50.210;10.628;2023-11-21T02:51:28;7.90;99.90
8537;DHT22;4306;50.210;10.628;2023-11-21T02:53:55;7.90;99.90
8537;DHT22;4306;50.210;10.628;2023-11-21T02:56:24;7.90;99.90
8537;DHT22;4306;50.210;10.628;2023-11-21T02:58:55;8.00;99.90
8537;DHT22;4306;50.210;10.628;2023-11-21T03:01:22;7.90;99.90
8537;DHT22;4306;50.210;10.628;2023-11-21T03:03:50;7.90;99.90
8537;DHT22;4306;50.210;10.628;2023-11-21T03:06:18;7.80;99.90
8537;DHT22;4306;50.210;10.628;2023-11-21T03:08:45;7.80;99.90
8537;DHT22;4306;50.210;10.628;2023-11-21T03:11:12;7.80;99.90
8537;DHT22;4306;50.210;10.628;2023-11-21T03:13:40;7.80;99.90
8537;DHT22;4306;50.210;10.628;2023-11-21T03:16:09;7.80;99.90
8537;DHT22;4306;50.210;10.628;2023-11-21T03:18:37;7.80;99.90
8537;DHT22;4306;50.210;10.628;2023-11-21T03:21:04;7.90;99.90
8537;DHT22;4306;50.210;10.628;2023-11-21T03:23:34;7.90;99.90
8537;DHT22;4306;50.210;10.628;2023-11-21T03:26:01;8.00;99.90
8537;DHT22;4306;50.210;10.628;2023-11-21T03:28:28;8.00;99.90
8537;DHT22;4306;50.210;10.628;2023-11-21T03:30:56;8.00;99.90
8537;DHT22;4306;50.210;10.628;2023-11-21T03:33:24;8.00;99.90
8537;DHT22;4306;50.210;10.628;2023-11-21T03:35:51;8.00;99.90
8537;DHT22;4306;50.210;10.628;2023-11-21T03:38:19;8.00;99.90
8537;DHT22;4306;50.210;10.628;2023-11-21T03:40:46;8.00;99.90
8537;DHT22;4306;50.210;10.628;2023-11-21T03:43:13;8.00;99.90
8537;DHT22;4306;50.210;10.628;2023-11-21T03:45:40;8.00;99.90
8537;DHT22;4306;50.210;10.628;2023-11-21T03:48:08;8.10;99.90
8537;DHT22;4306;50.210;10.628;2023-11-21T03:50:36;8.00;99.90
8537;DHT22;4306;50.210;10.628;2023-11-21T03:53:03;8.00;99.90
8537;DHT22;4306;50.210;10.628;2023-11-21T03:55:30;8.00;99.90
8537;DHT22;4306;50.210;10.628;2023-11-21T03:57:57;8.00;99.90
8537;DHT22;4306;50.210;10.628;2023-11-21T04:00:24;8.10;99.90
8537;DHT22;4306;50.210;10.628;2023-11-21T04:02:52;8.10;99.90
8537;DHT22;4306;50.210;10.628;2023-11-21T04:05:20;8.00;99.90
8537;DHT22;4306;50.210;10.628;2023-11-21T04:07:50;8.00;99.90
8537;DHT22;4306;50.210;10.628;2023-11-21T04:10:17;8.10;99.90
8537;DHT22;4306;50.210;10.628;2023-11-21T04:12:45;8.10;99.90
8537;DHT22;4306;50.210;10.628;2023-11-21T04:15:12;8.10;99.90
8537;DHT22;4306;50.210;10.628;2023-11-21T04:17:40;8.10;99.90
8537;DHT22;4306;50.210;10.628;2023-11-21T04:20:08;8.10;99.90
8537;DHT22;4306;50.210;10.628;2023-11-21T04:22:39;8.10;99.90
8537;DHT22;4306;50.210;10.628;2023-11-21T04:25:10;8.10;99.90
8537;DHT22;4306;50.210;10.628;2023-11-21T04:27:38;8.10;99.90
8537;DHT22;4306;50.210;10.628;2023-11-21T04:30:06;8.00;99.90
8537;DHT22;4306;50.210;10.628;2023-11-21T04:32:35;7.90;99.90
8537;DHT22;4306;50.210;10.628;2023-11-21T04:35:03;7.90;99.90
8537;DHT22;4306;50.210;10.628;2023-11-21T04:37:30;7.80;99.90
8537;DHT22;4306;50.210;10.628;2023-11-21T04:39:57;7.80;99.90
8537;DHT22;4306;50.210;10.628;2023-11-21T04:42:25;7.90;99.90
8537;DHT22;4306;50.210;10.628;2023-11-21T04:44:52;7.90;99.90
8537;DHT22;4306;50.210;10.628;2023-11-21T04:47:20;7.90;99.90
8537;DHT22;4306;50.210;10.628;2023-11-21T04:49:47;7.80;99.90
8537;DHT22;4306;50.210;10.628;2023-11-21T04:52:14;7.70;99.90
8537;DHT22;4306;50.210;10.628;2023-11-21T04:54:41;7.70;99.90
8537;DHT22;4306;50.210;10.628;2023-11-21T04:57:09;7.70;99.90
8537;DHT22;4306;50.210;10.628;2023-11-21T04:59:37;7.70;99.90
8537;DHT22;4306;50.210;10.628;2023-11-21T05:02:04;7.70;99.90
8537;DHT22;4306;50.210;10.628;2023-11-21T05:04:30;7.60;99.90
8537;DHT22;4306;50.210;10.628;2023-11-21T05:06:58;7.70;99.90
8537;DHT22;4306;50.210;10.628;2023-11-21T05:09:26;7.70;99.90
8537;DHT22;4306;50.210;10.628;2023-11-21T05:11:57;7.70;99.90
8537;DHT22;4306;50.210;10.628;2023-11-21T05:14:25;7.70;99.90
8537;DHT22;4306;50.210;10.628;2023-11-21T05:16:54;7.70;99.90
8537;DHT22;4306;50.210;10.628;2023-11-21T05:19:21;7.70;99.90
8537;DHT22;4306;50.210;10.628;2023-11-21T05:21:48;7.70;99.90
8537;DHT22;4306;50.210;10.628;2023-11-21T05:24:16;7.70;99.90
8537;DHT22;4306;50.210;10.628;2023-11-21T05:26:42;7.80;99.90
8537;DHT22;4306;50.210;10.628;2023-11-21T05:29:09;7.80;99.90
8537;DHT22;4306;50.210;10.628;2023-11-21T05:31:37;7.70;99.90
8537;DHT22;4306;50.210;10.628;2023-11-21T05:34:05;7.50;99.90
8537;DHT22;4306;50.210;10.628;2023-11-21T05:36:32;7.50;99.90
8537;DHT22;4306;50.210;10.628;2023-11-21T05:39:00;7.60;99.90
8537;DHT22;4306;50.210;10.628;2023-11-21T05:41:29;7.60;99.90
8537;DHT22;4306;50.210;10.628;2023-11-21T05:43:56;7.60;99.90
8537;DHT22;4306;50.210;10.628;2023-11-21T05:46:23;7.50;99.90
8537;DHT22;4306;50.210;10.628;2023-11-21T05:48:50;7.50;99.90
8537;DHT22;4306;50.210;10.628;2023-11-21T05:51:18;7.50;99.90
8537;DHT22;4306;50.210;10.628;2023-11-21T05:53:45;7.60;99.90
8537;DHT22;4306;50.210;10.628;2023-11-21T05:56:13;7.60;99.90
8537;DHT22;4306;50.210;10.628;2023-11-21T05:58:40;7.60;99.90
8537;DHT22;4306;50.210;10.628;2023-11-21T06:01:07;7.60;99.90
8537;DHT22;4306;50.210;10.628;2023-11-21T06:03:34;7.60;99.90
8537;DHT22;4306;50.210;10.628;2023-11-21T06:06:02;7.50;99.90
8537;DHT22;4306;50.210;10.628;2023-11-21T06:08:31;7.60;99.90
8537;DHT22;4306;50.210;10.628;2023-11-21T06:10:58;7.60;99.90
8537;DHT22;4306;50.210;10.628;2023-11-21T06:13:25;7.60;99.90
8537;DHT22;4306;50.210;10.628;2023-11-21T06:15:52;7.60;99.90
8537;DHT22;4306;50.210;10.628;2023-11-21T06:18:19;7.50;99.90
8537;DHT22;4306;50.210;10.628;2023-11-21T06:20:46;7.50;99.90
8537;DHT22;4306;50.210;10.628;2023-11-21T06:23:13;7.50;99.90
8537;DHT22;4306;50.210;10.628;2023-11-21T06:25:43;7.50;99.90
8537;DHT22;4306;50.210;10.628;2023-11-21T06:28:10;7.50;99.90
8537;DHT22;4306;50.210;10.628;2023-11-21T06:30:37;7.50;99.90
8537;DHT22;4306;50.210;10.628;2023-11-21T06:33:04;7.60;99.90
8537;DHT22;4306;50.210;10.628;2023-11-21T06:35:32;7.60;99.90
8537;DHT22;4306;50.210;10.628;2023-11-21T06:38:00;7.50;99.90
8537;DHT22;4306;50.210;10.628;2023-11-21T06:40:28;7.40;99.90
8537;DHT22;4306;50.210;10.628;2023-11-21T06:42:56;7.40;99.90
8537;DHT22;4306;50.210;10.628;2023-11-21T06:45:24;7.40;99.90
8537;DHT22;4306;50.210;10.628;2023-11-21T06:47:51;7.50;99.90
8537;DHT22;4306;50.210;10.628;2023-11-21T06:50:18;7.50;99.90
8537;DHT22;4306;50.210;10.628;2023-11-21T06:52:46;7.50;99.90
8537;DHT22;4306;50.210;10.628;2023-11-21T06:55:14;7.50;99.90
8537;DHT22;4306;50.210;10.628;2023-11-21T06:57:41;7.50;99.90
8537;DHT22;4306;50.210;10.628;2023-11-21T07:00:11;7.50;99.90
8537;DHT22;4306;50.210;10.628;2023-11-21T07:02:38;7.50;99.90
8537;DHT22;4306;50.210;10.628;2023-11-21T07:05:06;7.60;99.90
8537;DHT22;4306;50.210;10.628;2023-11-21T07:07:33;7.60;99.90
8537;DHT22;4306;50.210;10.628;2023-11-21T07:10:01;7.70;99.90
8537;DHT22;4306;50.210;10.628;2023-11-21T07:12:29;7.70;99.90
8537;DHT22;4306;50.210;10.628;2023-11-21T07:14:56;7.70;99.90
8537;DHT22;4306;50.210;10.628;2023-11-21T07:17:25;8.00;99.90
8537;DHT22;4306;50.210;10.628;2023-11-21T07:19:52;7.80;99.90
8537;DHT22;4306;50.210;10.628;2023-11-21T07:22:19;7.70;99.90
8537;DHT22;4306;50.210;10.628;2023-11-21T07:24:48;7.70;99.90
8537;DHT22;4306;50.210;10.628;2023-11-21T07:27:17;7.50;99.90
8537;DHT22;4306;50.210;10.628;2023-11-21T07:29:44;7.60;99.90
8537;DHT22;4306;50.210;10.628;2023-11-21T07:32:11;7.70;99.90
8537;DHT22;4306;50.210;10.628;2023-11-21T07:34:40;7.70;99.90
8537;DHT22;4306;50.210;10.628;2023-11-21T07:37:08;7.80;99.90
8537;DHT22;4306;50.210;10.628;2023-11-21T07:39:35;7.80;99.90
8537;DHT22;4306;50.210;10.628;2023-11-21T07:42:02;7.80;99.90
8537;DHT22;4306;50.210;10.628;2023-11-21T07:44:30;7.80;99.90
8537;DHT22;4306;50.210;10.628;2023-11-21T07:46:57;7.80;99.90
8537;DHT22;4306;50.210;10.628;2023-11-21T07:49:24;7.90;99.90
8537;DHT22;4306;50.210;10.628;2023-11-21T07:51:53;7.90;99.90
8537;DHT22;4306;50.210;10.628;2023-11-21T07:54:20;7.90;99.90
8537;DHT22;4306;50.210;10.628;2023-11-21T07:56:47;7.90;99.90
8537;DHT22;4306;50.210;10.628;2023-11-21T07:59:14;7.90;99.90
8537;DHT22;4306;50.210;10.628;2023-11-21T08:01:42;8.00;99.90
8537;DHT22;4306;50.210;10.628;2023-11-21T08:04:11;8.00;99.90
8537;DHT22;4306;50.210;10.628;2023-11-21T08:06:38;8.10;99.90
8537;DHT22;4306;50.210;10.628;2023-11-21T08:09:08;8.20;99.90
8537;DHT22;4306;50.210;10.628;2023-11-21T08:11:37;8.20;99.90
8537;DHT22;4306;50.210;10.628;2023-11-21T08:14:04;8.20;99.90
8537;DHT22;4306;50.210;10.628;2023-11-21T08:16:31;8.00;99.90
8537;DHT22;4306;50.210;10.628;2023-11-21T08:18:58;8.00;99.90
8537;DHT22;4306;50.210;10.628;2023-11-21T08:21:26;8.10;99.90
8537;DHT22;4306;50.210;10.628;2023-11-21T08:23:54;8.20;99.90
8537;DHT22;4306;50.210;10.628;2023-11-21T08:26:23;8.20;99.90
8537;DHT22;4306;50.210;10.628;2023-11-21T08:28:50;8.20;99.90
8537;DHT22;4306;50.210;10.628;2023-11-21T08:31:23;8.30;99.90
8537;DHT22;4306;50.210;10.628;2023-11-21T08:33:51;8.30;99.90
8537;DHT22;4306;50.210;10.628;2023-11-21T08:36:21;8.30;99.90
8537;DHT22;4306;50.210;10.628;2023-11-21T08:38:48;8.20;99.90
8537;DHT22;4306;50.210;10.628;2023-11-21T08:41:15;8.10;99.90
8537;DHT22;4306;50.210;10.628;2023-11-21T08:43:44;8.10;99.90
8537;DHT22;4306;50.210;10.628;2023-11-21T08:46:11;8.20;99.90
8537;DHT22;4306;50.210;10.628;2023-11-21T08:48:37;8.10;99.90
8537;DHT22;4306;50.210;10.628;2023-11-21T08:51:05;8.00;99.90
8537;DHT22;4306;50.210;10.628;2023-11-21T08:53:32;8.00;99.90
8537;DHT22;4306;50.210;10.628;2023-11-21T08:55:59;7.90;99.90
8537;DHT22;4306;50.210;10.628;2023-11-21T08:58:27;7.90;99.90
8537;DHT22;4306;50.210;10.628;2023-11-21T09:00:55;8.00;99.90
8537;DHT22;4306;50.210;10.628;2023-11-21T09:03:22;8.00;99.90
8537;DHT22;4306;50.210;10.628;2023-11-21T09:05:50;8.10;99.90
8537;DHT22;4306;50.210;10.628;2023-11-21T09:08:17;8.00;99.90
8537;DHT22;4306;50.210;10.628;2023-11-21T09:10:44;8.00;99.90
8537;DHT22;4306;50.210;10.628;2023-11-21T09:13:13;8.10;99.90
8537;DHT22;4306;50.210;10.628;2023-11-21T09:15:42;8.00;99.90
8537;DHT22;4306;50.210;10.628;2023-11-21T09:18:13;8.00;99.90
8537;DHT22;4306;50.210;10.628;2023-11-21T09:20:40;8.10;99.90
8537;DHT22;4306;50.210;10.628;2023-11-21T09:23:08;8.20;99.90
8537;DHT22;4306;50.210;10.628;2023-11-21T09:25:35;8.20;99.90
8537;DHT22;4306;50.210;10.628;2023-11-21T09:28:03;8.30;99.90
8537;DHT22;4306;50.210;10.628;2023-11-21T09:30:33;8.20;99.90
8537;DHT22;4306;50.210;10.628;2023-11-21T09:33:01;8.30;99.90
8537;DHT22;4306;50.210;10.628;2023-11-21T09:35:29;8.30;99.90
8537;DHT22;4306;50.210;10.628;2023-11-21T09:37:57;8.40;99.90
8537;DHT22;4306;50.210;10.628;2023-11-21T09:40:24;8.40;99.90
8537;DHT22;4306;50.210;10.628;2023-11-21T09:42:55;8.40;99.90
8537;DHT22;4306;50.210;10.628;2023-11-21T09:45:25;8.40;99.90
8537;DHT22;4306;50.210;10.628;2023-11-21T09:47:55;8.40;99.90
8537;DHT22;4306;50.210;10.628;2023-11-21T09:50:23;8.30;99.90
8537;DHT22;4306;50.210;10.628;2023-11-21T09:52:58;8.40;99.90
8537;DHT22;4306;50.210;10.628;2023-11-21T09:55:34;8.40;99.90
8537;DHT22;4306;50.210;10.628;2023-11-21T09:58:03;8.50;99.90
8537;DHT22;4306;50.210;10.628;2023-11-21T10:00:33;8.60;99.90
8537;DHT22;4306;50.210;10.628;2023-11-21T10:03:00;8.60;99.90
8537;DHT22;4306;50.210;10.628;2023-11-21T10:05:28;8.60;99.90
8537;DHT22;4306;50.210;10.628;2023-11-21T10:08:00;8.80;99.90
8537;DHT22;4306;50.210;10.628;2023-11-21T10:10:28;8.80;99.90
8537;DHT22;4306;50.210;10.628;2023-11-21T10:12:57;8.90;99.90
8537;DHT22;4306;50.210;10.628;2023-11-21T10:15:29;9.00;99.90
8537;DHT22;4306;50.210;10.628;2023-11-21T10:18:02;8.90;99.90
8537;DHT22;4306;50.210;10.628;2023-11-21T10:20:32;8.90;99.90
8537;DHT22;4306;50.210;10.628;2023-11-21T10:23:01;8.90;99.90
8537;DHT22;4306;50.210;10.628;2023-11-21T10:25:29;8.90;99.90
8537;DHT22;4306;50.210;10.628;2023-11-21T10:27:58;9.00;99.90
8537;DHT22;4306;50.210;10.628;2023-11-21T10:30:32;8.90;99.90
8537;DHT22;4306;50.210;10.628;2023-11-21T10:33:04;9.00;99.90
8537;DHT22;4306;50.210;10.628;2023-11-21T10:35:44;9.10;99.90
8537;DHT22;4306;50.210;10.628;2023-11-21T10:38:17;8.90;99.90
8537;DHT22;4306;50.210;10.628;2023-11-21T10:40:47;8.80;99.90
8537;DHT22;4306;50.210;10.628;2023-11-21T10:43:15;8.90;99.90
8537;DHT22;4306;50.210;10.628;2023-11-21T10:45:43;9.00;99.90
8537;DHT22;4306;50.210;10.628;2023-11-21T10:48:12;9.00;99.90
8537;DHT22;4306;50.210;10.628;2023-11-21T10:50:41;9.00;99.90
8537;DHT22;4306;50.210;10.628;2023-11-21T10:53:09;9.00;99.90
8537;DHT22;4306;50.210;10.628;2023-11-21T10:55:39;9.00;99.90
8537;DHT22;4306;50.210;10.628;2023-11-21T10:58:07;8.90;99.90
8537;DHT22;4306;50.210;10.628;2023-11-21T11:00:37;8.90;99.90
8537;DHT22;4306;50.210;10.628;2023-11-21T11:03:06;9.00;99.90
8537;DHT22;4306;50.210;10.628;2023-11-21T11:05:40;8.90;99.90
8537;DHT22;4306;50.210;10.628;2023-11-21T11:08:17;9.00;99.90
8537;DHT22;4306;50.210;10.628;2023-11-21T11:10:47;8.90;99.90
8537;DHT22;4306;50.210;10.628;2023-11-21T11:13:18;9.00;99.90
8537;DHT22;4306;50.210;10.628;2023-11-21T11:15:47;9.00;99.90
8537;DHT22;4306;50.210;10.628;2023-11-21T11:18:15;9.10;99.90
8537;DHT22;4306;50.210;10.628;2023-11-21T11:20:43;9.10;99.90
8537;DHT22;4306;50.210;10.628;2023-11-21T11:23:32;9.20;99.90
8537;DHT22;4306;50.210;10.628;2023-11-21T11:26:16;9.20;99.90
8537;DHT22;4306;50.210;10.628;2023-11-21T11:28:57;9.10;99.90
8537;DHT22;4306;50.210;10.628;2023-11-21T11:31:38;9.30;99.90
8537;DHT22;4306;50.210;10.628;2023-11-21T11:34:17;9.50;99.90
8537;DHT22;4306;50.210;10.628;2023-11-21T11:36:55;9.60;99.90
8537;DHT22;4306;50.210;10.628;2023-11-21T11:39:28;9.70;99.90
8537;DHT22;4306;50.210;10.628;2023-11-21T11:42:03;9.70;99.90
8537;DHT22;4306;50.210;10.628;2023-11-21T11:44:53;9.70;99.90
8537;DHT22;4306;50.210;10.628;2023-11-21T11:47:23;9.70;99.90
8537;DHT22;4306;50.210;10.628;2023-11-21T11:50:11;9.70;99.90
8537;DHT22;4306;50.210;10.628;2023-11-21T11:52:43;9.80;99.90
8537;DHT22;4306;50.210;10.628;2023-11-21T11:55:11;9.90;99.90
8537;DHT22;4306;50.210;10.628;2023-11-21T11:57:42;9.90;99.90
8537;DHT22;4306;50.210;10.628;2023-11-21T12:00:14;9.90;99.90
8537;DHT22;4306;50.210;10.628;2023-11-21T12:02:45;10.10;99.90
8537;DHT22;4306;50.210;10.628;2023-11-21T12:05:14;9.90;99.90
8537;DHT22;4306;50.210;10.628;2023-11-21T12:07:45;9.90;99.90
8537;DHT22;4306;50.210;10.628;2023-11-21T12:10:15;9.80;99.90
8537;DHT22;4306;50.210;10.628;2023-11-21T12:12:48;9.80;99.90
8537;DHT22;4306;50.210;10.628;2023-11-21T12:15:18;9.70;99.90
8537;DHT22;4306;50.210;10.628;2023-11-21T12:17:46;9.70;99.90
8537;DHT22;4306;50.210;10.628;2023-11-21T12:20:15;9.70;99.90
8537;DHT22;4306;50.210;10.628;2023-11-21T12:22:46;9.70;99.90
8537;DHT22;4306;50.210;10.628;2023-11-21T12:25:15;9.70;99.90
8537;DHT22;4306;50.210;10.628;2023-11-21T12:27:44;9.80;99.90
8537;DHT22;4306;50.210;10.628;2023-11-21T12:30:15;9.70;99.90
8537;DHT22;4306;50.210;10.628;2023-11-21T12:32:44;9.70;99.90
8537;DHT22;4306;50.210;10.628;2023-11-21T12:35:12;9.80;99.90
8537;DHT22;4306;50.210;10.628;2023-11-21T12:37:41;9.80;99.90
8537;DHT22;4306;50.210;10.628;2023-11-21T12:40:10;9.80;99.90
8537;DHT22;4306;50.210;10.628;2023-11-21T12:42:42;9.80;99.90
8537;DHT22;4306;50.210;10.628;2023-11-21T12:45:19;9.70;99.90
8537;DHT22;4306;50.210;10.628;2023-11-21T12:47:49;9.70;99.90
8537;DHT22;4306;50.210;10.628;2023-11-21T12:50:19;9.70;99.90
8537;DHT22;4306;50.210;10.628;2023-11-21T12:52:49;9.90;99.90
8537;DHT22;4306;50.210;10.628;2023-11-21T12:55:20;9.80;99.90
8537;DHT22;4306;50.210;10.628;2023-11-21T12:57:49;9.70;99.90
8537;DHT22;4306;50.210;10.628;2023-11-21T13:00:28;9.70;99.90
8537;DHT22;4306;50.210;10.628;2023-11-21T13:02:56;9.80;99.90
8537;DHT22;4306;50.210;10.628;2023-11-21T13:05:28;9.70;99.90
8537;DHT22;4306;50.210;10.628;2023-11-21T13:07:58;9.60;99.90
8537;DHT22;4306;50.210;10.628;2023-11-21T13:10:29;9.70;99.90
8537;DHT22;4306;50.210;10.628;2023-11-21T13:12:57;9.70;99.90
8537;DHT22;4306;50.210;10.628;2023-11-21T13:15:27;9.70;99.90
8537;DHT22;4306;50.210;10.628;2023-11-21T13:17:57;9.60;99.90
8537;DHT22;4306;50.210;10.628;2023-11-21T13:20:25;9.50;99.90
8537;DHT22;4306;50.210;10.628;2023-11-21T13:22:53;9.50;99.90
8537;DHT22;4306;50.210;10.628;2023-11-21T13:25:23;9.60;99.90
8537;DHT22;4306;50.210;10.628;2023-11-21T13:27:53;9.50;99.90
8537;DHT22;4306;50.210;10.628;2023-11-21T13:30:20;9.40;99.90
8537;DHT22;4306;50.210;10.628;2023-11-21T13:32:53;9.40;99.90
8537;DHT22;4306;50.210;10.628;2023-11-21T13:35:23;9.40;99.90
8537;DHT22;4306;50.210;10.628;2023-11-21T13:37:57;9.40;99.90
8537;DHT22;4306;50.210;10.628;2023-11-21T13:40:26;9.40;99.90
8537;DHT22;4306;50.210;10.628;2023-11-21T13:42:54;9.40;99.90
8537;DHT22;4306;50.210;10.628;2023-11-21T13:45:23;9.30;99.90
8537;DHT22;4306;50.210;10.628;2023-11-21T13:47:54;9.30;99.90
8537;DHT22;4306;50.210;10.628;2023-11-21T13:50:23;9.30;99.90
8537;DHT22;4306;50.210;10.628;2023-11-21T13:52:55;9.20;99.90
8537;DHT22;4306;50.210;10.628;2023-11-21T13:55:23;9.30;99.90
8537;DHT22;4306;50.210;10.628;2023-11-21T13:57:51;9.20;99.90
8537;DHT22;4306;50.210;10.628;2023-11-21T14:00:19;9.30;99.90
8537;DHT22;4306;50.210;10.628;2023-11-21T14:03:01;9.30;99.90
8537;DHT22;4306;50.210;10.628;2023-11-21T14:05:33;9.30;99.90
8537;DHT22;4306;50.210;10.628;2023-11-21T14:08:01;9.40;99.90
8537;DHT22;4306;50.210;10.628;2023-11-21T14:10:30;9.30;99.90
8537;DHT22;4306;50.210;10.628;2023-11-21T14:13:05;9.30;99.90
8537;DHT22;4306;50.210;10.628;2023-11-21T14:15:32;9.30;99.90
8537;DHT22;4306;50.210;10.628;2023-11-21T14:18:05;9.30;99.90
8537;DHT22;4306;50.210;10.628;2023-11-21T14:20:36;9.30;99.90
8537;DHT22;4306;50.210;10.628;2023-11-21T14:23:03;9.30;99.90
8537;DHT22;4306;50.210;10.628;2023-11-21T14:25:31;9.40;99.90
8537;DHT22;4306;50.210;10.628;2023-11-21T14:27:59;9.40;99.90
8537;DHT22;4306;50.210;10.628;2023-11-21T14:30:26;9.30;99.90
8537;DHT22;4306;50.210;10.628;2023-11-21T14:32:55;9.40;99.90
8537;DHT22;4306;50.210;10.628;2023-11-21T14:35:23;9.10;99.90
8537;DHT22;4306;50.210;10.628;2023-11-21T14:37:52;9.20;99.90
8537;DHT22;4306;50.210;10.628;2023-11-21T14:40:19;9.10;99.90
8537;DHT22;4306;50.210;10.628;2023-11-21T14:42:50;9.20;99.90
8537;DHT22;4306;50.210;10.628;2023-11-21T14:45:18;9.00;99.90
8537;DHT22;4306;50.210;10.628;2023-11-21T14:47:46;8.90;99.90
8537;DHT22;4306;50.210;10.628;2023-11-21T14:50:21;9.00;99.90
8537;DHT22;4306;50.210;10.628;2023-11-21T14:53:18;8.90;99.90
8537;DHT22;4306;50.210;10.628;2023-11-21T14:56:07;8.80;99.90
8537;DHT22;4306;50.210;10.628;2023-11-21T14:58:33;9.10;99.90
8537;DHT22;4306;50.210;10.628;2023-11-21T15:01:02;8.70;99.90
8537;DHT22;4306;50.210;10.628;2023-11-21T15:03:29;8.60;99.90
8537;DHT22;4306;50.210;10.628;2023-11-21T15:06:15;8.70;99.90
8537;DHT22;4306;50.210;10.628;2023-11-21T15:08:49;8.70;99.90
8537;DHT22;4306;50.210;10.628;2023-11-21T15:11:23;8.70;99.90
8537;DHT22;4306;50.210;10.628;2023-11-21T15:13:56;8.60;99.90
8537;DHT22;4306;50.210;10.628;2023-11-21T15:16:24;8.70;99.90
8537;DHT22;4306;50.210;10.628;2023-11-21T15:18:51;8.70;99.90
8537;DHT22;4306;50.210;10.628;2023-11-21T15:21:20;8.60;99.90
8537;DHT22;4306;50.210;10.628;2023-11-21T15:23:49;8.50;99.90
8537;DHT22;4306;50.210;10.628;2023-11-21T15:26:16;8.40;99.90
8537;DHT22;4306;50.210;10.628;2023-11-21T15:28:43;8.50;99.90
8537;DHT22;4306;50.210;10.628;2023-11-21T15:31:10;8.60;99.90
8537;DHT22;4306;50.210;10.628;2023-11-21T15:33:37;8.50;99.90
8537;DHT22;4306;50.210;10.628;2023-11-21T15:36:05;8.40;99.90
8537;DHT22;4306;50.210;10.628;2023-11-21T15:38:35;8.40;99.90
8537;DHT22;4306;50.210;10.628;2023-11-21T15:41:04;8.30;99.90
8537;DHT22;4306;50.210;10.628;2023-11-21T15:43:34;8.30;99.90
8537;DHT22;4306;50.210;10.628;2023-11-21T15:46:01;8.30;99.90
8537;DHT22;4306;50.210;10.628;2023-11-21T15:48:33;8.40;99.90
8537;DHT22;4306;50.210;10.628;2023-11-21T15:51:01;8.30;99.90
8537;DHT22;4306;50.210;10.628;2023-11-21T15:53:30;8.40;99.90
8537;DHT22;4306;50.210;10.628;2023-11-21T15:55:57;8.30;99.90
8537;DHT22;4306;50.210;10.628;2023-11-21T15:58:26;8.30;99.90
8537;DHT22;4306;50.210;10.628;2023-11-21T16:00:54;8.20;99.90
8537;DHT22;4306;50.210;10.628;2023-11-21T16:03:22;8.30;99.90
8537;DHT22;4306;50.210;10.628;2023-11-21T16:05:49;8.20;99.90
8537;DHT22;4306;50.210;10.628;2023-11-21T16:08:16;8.10;99.90
8537;DHT22;4306;50.210;10.628;2023-11-21T16:10:43;8.10;99.90
8537;DHT22;4306;50.210;10.628;2023-11-21T16:13:11;8.10;99.90